Time;durP1;ratioP1;P1;durP2;ratioP2;P2;SDS_P1;SDS_P2;PMS_P1;PMS_P2;Temp;Humidity;BMP_temperature;BMP_pressure;BME280_temperature;BME280_humidity;BME280_pressure;Samples;Min_cycle;Max_cycle;Signal;HPM_P1;HPM_P2
2022/08/07 00:02:24;;;;;;;12.13;5.32;;;;;;;;;;5029118;28;20274;-75
2022/08/07 00:04:49;;;;;;;9.63;5.33;;;;;;;;;;5031926;28;20048;-74
2022/08/07 00:07:14;;;;;;;6.88;5.18;;;;;;;;;;5050787;28;20642;-75
2022/08/07 00:09:40;;;;;;;7.65;5.35;;;;;;;;;;5033907;28;20044;-75
2022/08/07 00:12:06;;;;;;;7.60;4.85;;;;;;;;;;5034965;28;20021;-76
2022/08/07 00:14:31;;;;;;;9.27;5.43;;;;;;;;;;5035834;28;20487;-78
2022/08/07 00:16:57;;;;;;;9.05;5.18;;;;;;;;;;5035029;28;20022;-74
2022/08/07 00:19:22;;;;;;;8.63;5.65;;;;;;;;;;5035768;28;20018;-79
2022/08/07 00:21:48;;;;;;;11.48;5.30;;;;;;;;;;5036378;28;20089;-78
2022/08/07 00:24:13;;;;;;;8.85;5.88;;;;;;;;;;5036086;28;20087;-78
2022/08/07 00:26:38;;;;;;;8.68;5.20;;;;;;;;;;5035914;28;20075;-75
2022/08/07 00:29:03;;;;;;;10.77;5.55;;;;;;;;;;5035658;28;20034;-75
2022/08/07 00:31:28;;;;;;;13.23;6.40;;;;;;;;;;5036265;28;20026;-78
2022/08/07 00:33:54;;;;;;;9.00;5.43;;;;;;;;;;5035828;28;20262;-74
2022/08/07 00:36:19;;;;;;;8.63;5.65;;;;;;;;;;5036352;28;20040;-75
2022/08/07 00:38:44;;;;;;;7.78;5.30;;;;;;;;;;5034165;28;20022;-75
2022/08/07 00:41:10;;;;;;;8.77;5.80;;;;;;;;;;5051225;28;20164;-78
2022/08/07 00:43:36;;;;;;;7.97;5.50;;;;;;;;;;5022462;28;20167;-79
2022/08/07 00:46:01;;;;;;;9.77;6.07;;;;;;;;;;5016228;28;20104;-78
2022/08/07 00:48:26;;;;;;;11.10;6.10;;;;;;;;;;5027129;28;20037;-78
2022/08/07 00:50:52;;;;;;;10.13;6.15;;;;;;;;;;5033798;28;20022;-78
2022/08/07 00:53:18;;;;;;;12.88;6.90;;;;;;;;;;5035069;28;20040;-75
2022/08/07 00:55:43;;;;;;;15.63;7.70;;;;;;;;;;5047039;28;20029;-76
2022/08/07 00:58:08;;;;;;;13.30;6.93;;;;;;;;;;5067279;28;20567;-75
2022/08/07 01:00:34;;;;;;;12.63;7.47;;;;;;;;;;5035838;28;20473;-75
2022/08/07 01:02:59;;;;;;;12.40;7.15;;;;;;;;;;5035281;28;20052;-75
2022/08/07 01:05:25;;;;;;;11.30;7.47;;;;;;;;;;5050625;28;20401;-75
2022/08/07 01:07:51;;;;;;;9.40;6.25;;;;;;;;;;5034429;28;20045;-79
2022/08/07 01:10:16;;;;;;;14.02;8.65;;;;;;;;;;5035216;28;20029;-74
2022/08/07 01:12:42;;;;;;;12.40;6.65;;;;;;;;;;5034507;28;20017;-79
2022/08/07 01:15:08;;;;;;;14.38;7.55;;;;;;;;;;5034494;28;20061;-75
2022/08/07 01:17:33;;;;;;;10.82;6.00;;;;;;;;;;5033775;28;20237;-74
2022/08/07 01:20:04;;;;;;;11.57;7.18;;;;;;;;;;5049907;28;20037;-74
2022/08/07 01:22:29;;;;;;;11.75;7.38;;;;;;;;;;5034996;28;20033;-78
2022/08/07 01:24:55;;;;;;;14.07;6.80;;;;;;;;;;5050039;28;20032;-75
2022/08/07 01:27:20;;;;;;;11.75;8.20;;;;;;;;;;5050312;28;20132;-78
2022/08/07 01:29:46;;;;;;;11.48;7.15;;;;;;;;;;5033041;28;20497;-78
2022/08/07 01:32:11;;;;;;;15.65;7.90;;;;;;;;;;5046335;28;20014;-77
2022/08/07 01:34:36;;;;;;;15.23;7.97;;;;;;;;;;5046686;28;20112;-74
2022/08/07 01:37:01;;;;;;;14.82;7.93;;;;;;;;;;5015091;28;20049;-77
2022/08/07 01:39:27;;;;;;;13.50;8.32;;;;;;;;;;5032445;28;20549;-74
2022/08/07 01:41:53;;;;;;;14.80;8.73;;;;;;;;;;5031866;28;20060;-77
2022/08/07 01:44:18;;;;;;;15.55;9.02;;;;;;;;;;5041329;28;20029;-77
2022/08/07 01:46:44;;;;;;;14.98;8.20;;;;;;;;;;5033639;28;20489;-74
2022/08/07 01:49:10;;;;;;;14.43;8.13;;;;;;;;;;5033580;28;20045;-74
2022/08/07 01:51:36;;;;;;;15.68;9.10;;;;;;;;;;5033820;28;20109;-76
2022/08/07 01:54:03;;;;;;;14.45;9.15;;;;;;;;;;5032734;28;20477;-80
2022/08/07 01:56:30;;;;;;;17.33;9.20;;;;;;;;;;5051690;28;20060;-77
2022/08/07 01:59:04;;;;;;;13.30;8.68;;;;;;;;;;5053508;28;20029;-75
2022/08/07 02:01:32;;;;;;;16.05;9.60;;;;;;;;;;5067772;28;20044;-78
2022/08/07 02:03:59;;;;;;;17.33;9.02;;;;;;;;;;5014823;28;20514;-77
2022/08/07 02:06:29;;;;;;;14.70;9.13;;;;;;;;;;5014213;28;20030;-79
2022/08/07 02:08:59;;;;;;;14.70;8.48;;;;;;;;;;5018032;28;20040;-77
2022/08/07 02:11:24;;;;;;;15.55;9.73;;;;;;;;;;5033653;28;20025;-78
2022/08/07 02:13:50;;;;;;;16.60;10.02;;;;;;;;;;5044644;28;20032;-75
2022/08/07 02:16:16;;;;;;;18.73;9.82;;;;;;;;;;5069827;28;20159;-75
2022/08/07 02:18:42;;;;;;;14.95;8.60;;;;;;;;;;5038478;28;20454;-74
2022/08/07 02:21:08;;;;;;;14.93;9.00;;;;;;;;;;5033546;28;20160;-75
2022/08/07 02:23:34;;;;;;;16.42;9.23;;;;;;;;;;5032744;28;20057;-75
2022/08/07 02:25:59;;;;;;;17.55;10.07;;;;;;;;;;5034039;28;20398;-75
2022/08/07 02:28:27;;;;;;;17.33;10.18;;;;;;;;;;5031370;28;20036;-77
2022/08/07 02:30:53;;;;;;;14.88;8.80;;;;;;;;;;5049384;28;20045;-77
2022/08/07 02:33:18;;;;;;;16.30;8.95;;;;;;;;;;5033380;28;20067;-74
2022/08/07 02:35:45;;;;;;;15.45;8.88;;;;;;;;;;5026868;28;20026;-79
2022/08/07 02:38:11;;;;;;;17.33;9.00;;;;;;;;;;5014402;28;20030;-79
2022/08/07 02:40:39;;;;;;;17.00;8.85;;;;;;;;;;5020169;28;20085;-77
2022/08/07 02:43:05;;;;;;;15.75;8.13;;;;;;;;;;5027051;28;20039;-77
2022/08/07 02:45:35;;;;;;;15.15;9.57;;;;;;;;;;5041027;28;20505;-76
2022/08/07 02:48:04;;;;;;;17.63;9.77;;;;;;;;;;5032998;28;20112;-78
2022/08/07 02:50:31;;;;;;;15.60;8.57;;;;;;;;;;5032544;28;20025;-75
2022/08/07 02:53:00;;;;;;;20.63;9.23;;;;;;;;;;5032349;28;20245;-74
2022/08/07 02:55:28;;;;;;;14.57;8.32;;;;;;;;;;5030185;28;20025;-77
2022/08/07 02:57:57;;;;;;;14.55;7.93;;;;;;;;;;5011807;28;20034;-78
2022/08/07 03:00:24;;;;;;;15.23;8.70;;;;;;;;;;5012130;28;20041;-78
2022/08/07 03:02:51;;;;;;;15.45;9.70;;;;;;;;;;5011925;28;20041;-78
2022/08/07 03:05:17;;;;;;;15.38;8.55;;;;;;;;;;5031755;28;20507;-74
2022/08/07 03:07:46;;;;;;;20.10;9.63;;;;;;;;;;5033506;28;20045;-78
2022/08/07 03:10:12;;;;;;;14.05;8.68;;;;;;;;;;5028313;28;20485;-77
2022/08/07 03:12:38;;;;;;;16.25;8.90;;;;;;;;;;5038602;28;20029;-74
2022/08/07 03:15:04;;;;;;;17.58;8.98;;;;;;;;;;5036993;28;20056;-78
2022/08/07 03:17:30;;;;;;;15.40;9.35;;;;;;;;;;5032753;28;20097;-79
2022/08/07 03:19:55;;;;;;;16.80;10.02;;;;;;;;;;5032324;28;20116;-79
2022/08/07 03:22:22;;;;;;;15.52;9.32;;;;;;;;;;5033363;28;20487;-79
2022/08/07 03:24:47;;;;;;;15.27;9.63;;;;;;;;;;5032693;28;20087;-75
2022/08/07 03:27:13;;;;;;;18.40;10.40;;;;;;;;;;5032047;28;20029;-75
2022/08/07 03:29:46;;;;;;;20.52;10.23;;;;;;;;;;5032504;28;20049;-76
2022/08/07 03:32:13;;;;;;;16.98;10.13;;;;;;;;;;5032304;28;20385;-80
2022/08/07 03:34:42;;;;;;;18.42;10.00;;;;;;;;;;5030563;28;20030;-76
2022/08/07 03:37:09;;;;;;;17.67;10.00;;;;;;;;;;5032203;28;20013;-73
2022/08/07 03:39:34;;;;;;;15.43;9.18;;;;;;;;;;5031681;28;20124;-76
2022/08/07 03:42:02;;;;;;;18.05;9.98;;;;;;;;;;5043305;28;20512;-77
2022/08/07 03:44:27;;;;;;;19.65;9.88;;;;;;;;;;5050290;28;20031;-78
2022/08/07 03:46:52;;;;;;;18.15;9.50;;;;;;;;;;5051000;28;20400;-74
2022/08/07 03:49:18;;;;;;;18.63;9.52;;;;;;;;;;5060250;28;20025;-77
2022/08/07 03:51:47;;;;;;;16.95;10.30;;;;;;;;;;5032088;28;20017;-78
2022/08/07 03:54:12;;;;;;;19.33;11.10;;;;;;;;;;5046825;28;20040;-77
2022/08/07 03:56:39;;;;;;;16.42;10.57;;;;;;;;;;5051182;28;20099;-74
2022/08/07 03:59:04;;;;;;;18.88;10.02;;;;;;;;;;5052312;28;20029;-73
2022/08/07 04:01:31;;;;;;;19.13;10.32;;;;;;;;;;5035398;28;20045;-76
2022/08/07 04:03:56;;;;;;;18.38;10.93;;;;;;;;;;5030903;28;20069;-75
2022/08/07 04:06:21;;;;;;;17.83;8.93;;;;;;;;;;5031953;28;20029;-78
2022/08/07 04:08:47;;;;;;;18.35;9.77;;;;;;;;;;5047738;28;20066;-79
2022/08/07 04:11:12;;;;;;;16.33;9.82;;;;;;;;;;5031586;28;20042;-80
2022/08/07 04:13:38;;;;;;;15.93;10.45;;;;;;;;;;5033472;28;20465;-79
2022/08/07 04:16:03;;;;;;;18.05;10.00;;;;;;;;;;5031657;28;20021;-74
2022/08/07 04:18:28;;;;;;;18.02;9.90;;;;;;;;;;5031238;28;20040;-75
2022/08/07 04:20:54;;;;;;;14.70;8.77;;;;;;;;;;5031271;28;20022;-79
2022/08/07 04:23:19;;;;;;;16.35;9.57;;;;;;;;;;5031446;28;20013;-74
2022/08/07 04:25:45;;;;;;;15.43;10.02;;;;;;;;;;5047722;28;20037;-78
2022/08/07 04:28:11;;;;;;;16.90;9.88;;;;;;;;;;5031675;28;20032;-80
2022/08/07 04:30:36;;;;;;;21.02;10.45;;;;;;;;;;5047092;28;20101;-76
2022/08/07 04:33:08;;;;;;;19.15;11.15;;;;;;;;;;5031413;28;20541;-75
2022/08/07 04:35:35;;;;;;;20.02;9.43;;;;;;;;;;5031440;28;20117;-79
2022/08/07 04:38:03;;;;;;;16.67;9.02;;;;;;;;;;5031426;28;20037;-75
2022/08/07 04:40:28;;;;;;;17.30;10.60;;;;;;;;;;5031188;28;20073;-74
2022/08/07 04:42:53;;;;;;;16.83;9.82;;;;;;;;;;5035247;28;20112;-74
2022/08/07 04:45:23;;;;;;;15.70;9.52;;;;;;;;;;5036826;28;20021;-79
2022/08/07 04:47:51;;;;;;;19.88;10.48;;;;;;;;;;5034209;28;20394;-79
2022/08/07 04:50:24;;;;;;;18.73;9.13;;;;;;;;;;5034836;28;20013;-80
2022/08/07 04:53:00;;;;;;;24.42;10.48;;;;;;;;;;5034676;28;20424;-75
2022/08/07 04:55:35;;;;;;;17.35;10.48;;;;;;;;;;5020930;28;20029;-78
2022/08/07 04:58:16;;;;;;;18.65;11.13;;;;;;;;;;5035154;28;20096;-74
2022/08/07 05:00:46;;;;;;;19.60;9.80;;;;;;;;;;5032290;28;20038;-78
2022/08/07 05:03:26;;;;;;;18.42;10.10;;;;;;;;;;5026698;28;20110;-74
2022/08/07 05:06:02;;;;;;;17.60;10.07;;;;;;;;;;5034551;28;20481;-74
2022/08/07 05:08:38;;;;;;;19.45;10.80;;;;;;;;;;5034270;28;20029;-79
2022/08/07 05:11:23;;;;;;;17.60;10.23;;;;;;;;;;5021816;28;20033;-74
2022/08/07 05:13:58;;;;;;;17.95;9.82;;;;;;;;;;5022699;28;20490;-74
2022/08/07 05:16:25;;;;;;;18.88;9.82;;;;;;;;;;5020037;28;20044;-79
2022/08/07 05:18:53;;;;;;;16.83;10.43;;;;;;;;;;5036377;28;20068;-74
2022/08/07 05:21:21;;;;;;;15.40;9.10;;;;;;;;;;5041546;28;20057;-75
2022/08/07 05:23:48;;;;;;;21.88;11.45;;;;;;;;;;5045431;28;20026;-74
2022/08/07 05:26:16;;;;;;;19.60;11.48;;;;;;;;;;5015012;28;20026;-78
2022/08/07 05:28:41;;;;;;;16.70;10.07;;;;;;;;;;5016874;28;20474;-74
2022/08/07 05:31:07;;;;;;;17.75;10.02;;;;;;;;;;5033422;28;20029;-74
2022/08/07 05:33:34;;;;;;;23.88;12.00;;;;;;;;;;5021167;28;20287;-74
2022/08/07 05:36:02;;;;;;;19.05;11.38;;;;;;;;;;5034484;28;20030;-78
2022/08/07 05:38:28;;;;;;;19.85;10.73;;;;;;;;;;5034749;28;20681;-74
2022/08/07 05:40:54;;;;;;;22.23;11.98;;;;;;;;;;5034356;28;20033;-74
2022/08/07 05:43:19;;;;;;;20.40;11.43;;;;;;;;;;5044772;28;20376;-78
2022/08/07 05:45:46;;;;;;;25.00;12.93;;;;;;;;;;5015346;28;20129;-78
2022/08/07 05:48:14;;;;;;;19.40;10.35;;;;;;;;;;5029370;28;20033;-75
2022/08/07 05:50:39;;;;;;;24.95;12.20;;;;;;;;;;5034045;28;20029;-79
2022/08/07 05:53:09;;;;;;;23.13;12.75;;;;;;;;;;5034495;28;20054;-75
2022/08/07 05:55:34;;;;;;;23.08;11.93;;;;;;;;;;5040535;28;20057;-76
2022/08/07 05:58:00;;;;;;;21.52;11.07;;;;;;;;;;5032489;28;20319;-75
2022/08/07 06:00:27;;;;;;;24.15;13.23;;;;;;;;;;5033329;28;20033;-75
2022/08/07 06:02:52;;;;;;;23.52;12.93;;;;;;;;;;5048994;28;20029;-74
2022/08/07 06:05:19;;;;;;;24.20;11.60;;;;;;;;;;5049521;28;20528;-75
2022/08/07 06:07:47;;;;;;;22.20;13.23;;;;;;;;;;5033980;28;20489;-79
2022/08/07 06:10:16;;;;;;;27.52;13.07;;;;;;;;;;5048701;28;20081;-79
2022/08/07 06:12:44;;;;;;;23.95;12.75;;;;;;;;;;5031915;28;20037;-74
2022/08/07 06:15:12;;;;;;;27.77;13.45;;;;;;;;;;5033549;28;20018;-77
2022/08/07 06:17:41;;;;;;;23.50;11.48;;;;;;;;;;5033582;28;20029;-76
2022/08/07 06:20:07;;;;;;;21.80;11.52;;;;;;;;;;5033223;28;20104;-72
2022/08/07 06:22:33;;;;;;;24.05;11.45;;;;;;;;;;5032296;28;20363;-80
2022/08/07 06:24:58;;;;;;;21.00;11.75;;;;;;;;;;5049108;28;20067;-79
2022/08/07 06:27:24;;;;;;;22.08;12.27;;;;;;;;;;5048851;28;20469;-73
2022/08/07 06:29:49;;;;;;;23.08;12.68;;;;;;;;;;5031940;28;20083;-78
2022/08/07 06:32:14;;;;;;;21.25;11.82;;;;;;;;;;5033495;28;20036;-74
2022/08/07 06:34:43;;;;;;;37.13;19.60;;;;;;;;;;5033035;28;20033;-79
2022/08/07 06:37:11;;;;;;;36.47;17.08;;;;;;;;;;5032164;28;20032;-74
2022/08/07 06:39:37;;;;;;;27.73;13.10;;;;;;;;;;5032458;28;20065;-75
2022/08/07 06:42:18;;;;;;;37.28;17.88;;;;;;;;;;5031454;28;20390;-75
2022/08/07 06:44:44;;;;;;;25.95;13.85;;;;;;;;;;5051226;28;20116;-74
2022/08/07 06:47:10;;;;;;;38.53;18.92;;;;;;;;;;5036715;28;20104;-79
2022/08/07 06:49:35;;;;;;;37.65;18.15;;;;;;;;;;5032780;28;20096;-75
2022/08/07 06:52:01;;;;;;;33.90;17.70;;;;;;;;;;5032635;28;20084;-74
2022/08/07 06:54:27;;;;;;;39.60;17.92;;;;;;;;;;5031631;28;20017;-78
2022/08/07 06:56:53;;;;;;;41.63;19.13;;;;;;;;;;5031778;28;20033;-77
2022/08/07 06:59:24;;;;;;;34.13;16.73;;;;;;;;;;5065450;28;20029;-78
2022/08/07 07:01:51;;;;;;;31.88;16.13;;;;;;;;;;5051710;28;20025;-78
2022/08/07 07:04:16;;;;;;;32.70;17.30;;;;;;;;;;5032485;28;20041;-75
2022/08/07 07:06:43;;;;;;;40.42;19.25;;;;;;;;;;5033032;28;20044;-79
2022/08/07 07:09:32;;;;;;;39.90;18.88;;;;;;;;;;5033024;28;20531;-79
2022/08/07 07:12:06;;;;;;;38.83;19.33;;;;;;;;;;5042542;28;20094;-75
2022/08/07 07:14:35;;;;;;;42.47;19.42;;;;;;;;;;5032596;28;20409;-78
2022/08/07 07:17:03;;;;;;;41.38;18.13;;;;;;;;;;5047846;28;20033;-78
2022/08/07 07:19:32;;;;;;;38.20;17.77;;;;;;;;;;5011846;28;20034;-74
2022/08/07 07:21:57;;;;;;;32.80;15.85;;;;;;;;;;5026366;28;20025;-74
2022/08/07 07:24:23;;;;;;;35.58;17.48;;;;;;;;;;5032191;28;20024;-74
2022/08/07 07:26:50;;;;;;;43.22;18.85;;;;;;;;;;5033086;28;20159;-78
2022/08/07 07:29:16;;;;;;;34.80;17.13;;;;;;;;;;5031991;28;20496;-76
2022/08/07 07:31:46;;;;;;;38.92;19.65;;;;;;;;;;5031958;28;20497;-78
2022/08/07 07:34:16;;;;;;;39.50;18.92;;;;;;;;;;5031757;28;20025;-78
2022/08/07 07:36:43;;;;;;;41.85;19.27;;;;;;;;;;5044422;28;20179;-78
2022/08/07 07:39:09;;;;;;;42.80;19.45;;;;;;;;;;5046344;28;20022;-75
2022/08/07 07:41:34;;;;;;;32.63;16.52;;;;;;;;;;5032103;28;20402;-75
2022/08/07 07:44:00;;;;;;;40.95;18.05;;;;;;;;;;5032585;28;20120;-78
2022/08/07 07:46:27;;;;;;;41.90;18.73;;;;;;;;;;5031389;28;20020;-75
2022/08/07 07:48:53;;;;;;;39.78;18.08;;;;;;;;;;5030731;28;20116;-75
2022/08/07 07:51:20;;;;;;;38.83;17.05;;;;;;;;;;5032367;28;20117;-77
2022/08/07 07:53:46;;;;;;;37.00;16.70;;;;;;;;;;5031843;28;20545;-75
2022/08/07 07:56:12;;;;;;;31.02;13.65;;;;;;;;;;5040238;28;20107;-78
2022/08/07 07:58:38;;;;;;;34.53;17.45;;;;;;;;;;5031674;28;20113;-74
2022/08/07 08:01:03;;;;;;;29.95;14.02;;;;;;;;;;5029984;28;20463;-77
2022/08/07 08:03:30;;;;;;;27.75;12.73;;;;;;;;;;5031574;28;20112;-75
2022/08/07 08:05:55;;;;;;;25.67;12.98;;;;;;;;;;5048174;28;20121;-75
2022/08/07 08:08:31;;;;;;;27.38;14.15;;;;;;;;;;5038395;28;20064;-75
2022/08/07 08:10:56;;;;;;;31.83;12.55;;;;;;;;;;5052348;28;20416;-78
2022/08/07 08:13:23;;;;;;;29.02;12.00;;;;;;;;;;5042728;28;20052;-78
2022/08/07 08:15:49;;;;;;;24.30;11.05;;;;;;;;;;5032214;28;20456;-75
2022/08/07 08:18:14;;;;;;;26.08;12.40;;;;;;;;;;5030593;28;20116;-77
2022/08/07 08:20:40;;;;;;;25.48;12.35;;;;;;;;;;5033371;28;20017;-76
2022/08/07 08:28:39;;;;;;;17.05;8.38;;;;;;;;;;5036999;28;20052;-75
2022/08/07 08:31:09;;;;;;;17.55;7.60;;;;;;;;;;5032452;28;20028;-78
2022/08/07 08:33:37;;;;;;;16.58;7.45;;;;;;;;;;5034640;28;20056;-75
2022/08/07 08:36:07;;;;;;;19.65;7.70;;;;;;;;;;5036111;28;20555;-77
2022/08/07 08:38:40;;;;;;;14.88;7.22;;;;;;;;;;5036250;28;20389;-78
2022/08/07 08:41:05;;;;;;;;;;;;;;;;;;5043713;28;20036;-77
2022/08/07 08:43:44;;;;;;;15.27;6.90;;;;;;;;;;5035416;28;20422;-75
2022/08/07 08:46:15;;;;;;;18.20;7.45;;;;;;;;;;5035429;28;20793;-78
2022/08/07 08:49:00;;;;;;;21.05;9.40;;;;;;;;;;5034546;28;20025;-75
2022/08/07 08:51:25;;;;;;;12.43;6.30;;;;;;;;;;5035730;28;20043;-75
2022/08/07 08:53:51;;;;;;;18.83;6.43;;;;;;;;;;5051226;28;20033;-75
2022/08/07 08:56:22;;;;;;;17.63;7.88;;;;;;;;;;5034930;28;20833;-76
2022/08/07 08:58:56;;;;;;;13.25;6.63;;;;;;;;;;5036174;28;20040;-78
2022/08/07 09:01:21;;;;;;;12.15;7.03;;;;;;;;;;5051156;28;20481;-75
2022/08/07 09:04:05;;;;;;;16.40;7.13;;;;;;;;;;5050244;28;20040;-78
2022/08/07 09:06:49;;;;;;;14.35;7.70;;;;;;;;;;5035504;28;20036;-77
2022/08/07 09:09:33;;;;;;;16.33;7.53;;;;;;;;;;5035249;28;20029;-74
2022/08/07 09:12:15;;;;;;;18.05;8.73;;;;;;;;;;5035177;28;20033;-78
2022/08/07 09:14:41;;;;;;;17.08;7.35;;;;;;;;;;5031364;28;20029;-75
2022/08/07 09:17:30;;;;;;;19.33;7.00;;;;;;;;;;5035749;28;20029;-75
2022/08/07 09:20:17;;;;;;;15.52;7.95;;;;;;;;;;5034288;28;20099;-79
2022/08/07 09:23:01;;;;;;;14.63;7.80;;;;;;;;;;5033717;28;20430;-78
2022/08/07 09:25:30;;;;;;;15.70;7.30;;;;;;;;;;5034223;28;20033;-78
2022/08/07 09:28:09;;;;;;;19.02;7.38;;;;;;;;;;5033006;28;20017;-76
2022/08/07 09:30:44;;;;;;;13.48;6.97;;;;;;;;;;5035390;28;20079;-75
2022/08/07 09:33:19;;;;;;;12.30;6.97;;;;;;;;;;5049012;28;20034;-78
2022/08/07 09:35:55;;;;;;;11.90;6.70;;;;;;;;;;5031875;28;20018;-79
2022/08/07 09:38:32;;;;;;;13.60;6.03;;;;;;;;;;5035304;28;20397;-75
2022/08/07 09:41:03;;;;;;;13.27;6.55;;;;;;;;;;5034574;28;20402;-78
2022/08/07 09:43:48;;;;;;;13.20;6.57;;;;;;;;;;5049338;28;20593;-75
2022/08/07 09:46:32;;;;;;;11.65;6.00;;;;;;;;;;5050986;28;20176;-76
2022/08/07 09:49:21;;;;;;;12.85;6.55;;;;;;;;;;5033945;28;20448;-74
2022/08/07 09:51:49;;;;;;;13.10;6.07;;;;;;;;;;5014716;28;20033;-78
2022/08/07 09:54:18;;;;;;;11.40;5.53;;;;;;;;;;5050336;28;20033;-78
2022/08/07 09:57:02;;;;;;;13.05;6.22;;;;;;;;;;5034830;28;20222;-75
2022/08/07 09:59:42;;;;;;;11.93;5.82;;;;;;;;;;5034614;28;20072;-78
2022/08/07 10:02:26;;;;;;;10.95;6.03;;;;;;;;;;5034751;28;20033;-75
2022/08/07 10:05:10;;;;;;;12.00;5.20;;;;;;;;;;5049322;28;20146;-77
2022/08/07 10:07:43;;;;;;;13.63;5.32;;;;;;;;;;5042745;28;20494;-78
2022/08/07 10:10:27;;;;;;;14.55;6.15;;;;;;;;;;5047893;28;20125;-78
2022/08/07 10:13:07;;;;;;;10.00;5.38;;;;;;;;;;5034669;28;20474;-76
2022/08/07 10:15:44;;;;;;;15.82;6.57;;;;;;;;;;5034852;28;20100;-76
2022/08/07 10:18:19;;;;;;;13.85;6.60;;;;;;;;;;5034024;28;20025;-75
2022/08/07 10:20:53;;;;;;;14.50;7.18;;;;;;;;;;5035109;28;20385;-77
2022/08/07 10:23:27;;;;;;;12.10;6.68;;;;;;;;;;5034023;28;20037;-77
2022/08/07 10:25:58;;;;;;;12.88;6.70;;;;;;;;;;5053576;28;20064;-78
2022/08/07 10:28:40;;;;;;;14.35;6.88;;;;;;;;;;5052478;28;20040;-77
2022/08/07 10:31:24;;;;;;;9.77;5.82;;;;;;;;;;5023786;28;20029;-78
2022/08/07 10:34:08;;;;;;;15.38;6.65;;;;;;;;;;5034146;28;20053;-77
2022/08/07 10:36:33;;;;;;;16.67;6.40;;;;;;;;;;5034440;28;20026;-75
2022/08/07 10:39:04;;;;;;;13.37;6.87;;;;;;;;;;5034069;28;20029;-78
2022/08/07 10:41:30;;;;;;;12.53;6.50;;;;;;;;;;5034696;28;20365;-76
2022/08/07 10:44:04;;;;;;;12.35;6.20;;;;;;;;;;5031733;28;20021;-78
2022/08/07 10:46:35;;;;;;;12.10;6.18;;;;;;;;;;5032350;28;20033;-76
2022/08/07 10:49:08;;;;;;;13.57;6.13;;;;;;;;;;5048896;28;20033;-77
2022/08/07 10:51:34;;;;;;;12.35;6.57;;;;;;;;;;5031586;28;20029;-77
2022/08/07 10:54:17;;;;;;;14.17;6.70;;;;;;;;;;5033492;28;20039;-75
2022/08/07 10:56:55;;;;;;;15.02;5.65;;;;;;;;;;5040480;28;20393;-75
2022/08/07 10:59:34;;;;;;;10.68;5.63;;;;;;;;;;5034049;28;20067;-74
2022/08/07 11:02:02;;;;;;;16.23;5.85;;;;;;;;;;5032739;28;20082;-77
2022/08/07 11:04:46;;;;;;;11.35;6.25;;;;;;;;;;5033665;28;20053;-79
2022/08/07 11:07:24;;;;;;;14.02;6.15;;;;;;;;;;5032384;28;20544;-77
2022/08/07 11:09:54;;;;;;;16.48;6.22;;;;;;;;;;5031429;28;20096;-78
2022/08/07 11:12:22;;;;;;;13.02;5.25;;;;;;;;;;5032421;28;20026;-78
2022/08/07 11:14:55;;;;;;;11.40;4.57;;;;;;;;;;5034077;28;20624;-78
2022/08/07 11:17:28;;;;;;;9.82;5.82;;;;;;;;;;5031785;28;20028;-75
2022/08/07 11:20:12;;;;;;;13.05;6.20;;;;;;;;;;5032347;28;20029;-83
2022/08/07 11:22:37;;;;;;;8.60;4.43;;;;;;;;;;5033353;28;20097;-80
2022/08/07 11:25:03;;;;;;;8.77;4.43;;;;;;;;;;5048546;28;20251;-78
2022/08/07 11:27:41;;;;;;;9.98;4.30;;;;;;;;;;5032883;28;20306;-78
2022/08/07 11:30:09;;;;;;;8.88;4.03;;;;;;;;;;5047606;28;20025;-75
2022/08/07 11:32:39;;;;;;;6.60;3.95;;;;;;;;;;5032434;28;20025;-78
2022/08/07 11:35:09;;;;;;;16.80;5.85;;;;;;;;;;5048146;28;20482;-75
2022/08/07 11:37:47;;;;;;;12.90;4.70;;;;;;;;;;5032750;28;20026;-78
2022/08/07 11:40:15;;;;;;;7.97;4.50;;;;;;;;;;5047955;28;20033;-75
2022/08/07 11:42:47;;;;;;;7.82;4.22;;;;;;;;;;5031852;28;20367;-75
2022/08/07 11:45:45;;;;;;;7.43;4.18;;;;;;;;;;5031941;28;20033;-78
2022/08/07 11:48:10;;;;;;;7.30;3.85;;;;;;;;;;5005832;28;20457;-78
2022/08/07 11:50:54;;;;;;;8.90;4.20;;;;;;;;;;5032187;28;20128;-77
2022/08/07 11:53:29;;;;;;;6.32;3.97;;;;;;;;;;5032684;28;20254;-75
2022/08/07 11:55:58;;;;;;;8.38;4.40;;;;;;;;;;5032272;28;20504;-78
2022/08/07 11:58:29;;;;;;;8.55;3.85;;;;;;;;;;5032087;28;20079;-78
2022/08/07 12:01:07;;;;;;;8.88;5.53;;;;;;;;;;5033004;28;20532;-75
2022/08/07 12:03:51;;;;;;;7.95;4.90;;;;;;;;;;5047298;28;20108;-75
2022/08/07 12:06:27;;;;;;;8.27;4.47;;;;;;;;;;5035822;28;20056;-77
2022/08/07 12:08:57;;;;;;;8.45;4.07;;;;;;;;;;5033165;28;20030;-78
2022/08/07 12:11:26;;;;;;;7.90;4.75;;;;;;;;;;5032011;28;20120;-75
2022/08/07 12:14:10;;;;;;;7.80;3.75;;;;;;;;;;5032956;28;20024;-75
2022/08/07 12:16:46;;;;;;;6.78;4.00;;;;;;;;;;5032594;28;20429;-75
2022/08/07 12:19:18;;;;;;;11.52;3.33;;;;;;;;;;5032912;28;20014;-75
2022/08/07 12:22:03;;;;;;;6.93;4.10;;;;;;;;;;5047768;28;20421;-76
2022/08/07 12:24:36;;;;;;;6.82;3.97;;;;;;;;;;5030999;28;20029;-78
2022/08/07 12:27:06;;;;;;;5.30;3.67;;;;;;;;;;5030164;28;20026;-76
2022/08/07 12:29:36;;;;;;;9.07;3.10;;;;;;;;;;5046308;28;20397;-76
2022/08/07 12:32:26;;;;;;;5.50;3.30;;;;;;;;;;5029590;28;20558;-78
2022/08/07 12:34:52;;;;;;;8.25;3.92;;;;;;;;;;5013360;28;20034;-76
2022/08/07 12:37:18;;;;;;;5.70;3.17;;;;;;;;;;5030985;28;20071;-78
2022/08/07 12:39:47;;;;;;;7.30;3.63;;;;;;;;;;5033303;28;20441;-78
2022/08/07 12:42:19;;;;;;;5.38;3.28;;;;;;;;;;5045338;28;20030;-78
2022/08/07 12:44:45;;;;;;;8.63;4.10;;;;;;;;;;5032855;28;20029;-77
2022/08/07 12:47:28;;;;;;;8.13;3.70;;;;;;;;;;5031742;28;20028;-76
2022/08/07 12:49:57;;;;;;;8.95;4.40;;;;;;;;;;5032078;28;20018;-76
2022/08/07 12:52:35;;;;;;;12.35;4.30;;;;;;;;;;5032224;28;20385;-76
2022/08/07 12:55:38;;;;;;;7.65;3.60;;;;;;;;;;5032018;28;20044;-75
2022/08/07 12:58:05;;;;;;;7.90;4.45;;;;;;;;;;5022512;28;20040;-78
2022/08/07 13:00:37;;;;;;;7.25;3.50;;;;;;;;;;5027290;28;20041;-78
2022/08/07 13:03:22;;;;;;;6.35;3.58;;;;;;;;;;5021092;28;20050;-75
2022/08/07 13:05:51;;;;;;;7.00;4.40;;;;;;;;;;5032004;28;20053;-77
2022/08/07 13:08:26;;;;;;;7.03;4.65;;;;;;;;;;5021688;28;20018;-75
2022/08/07 13:11:04;;;;;;;9.25;5.13;;;;;;;;;;5035743;28;20043;-76
2022/08/07 13:13:41;;;;;;;10.38;5.47;;;;;;;;;;5034549;28;20036;-76
2022/08/07 13:16:09;;;;;;;12.40;4.75;;;;;;;;;;5016327;28;20656;-76
2022/08/07 13:18:34;;;;;;;13.30;6.18;;;;;;;;;;5028673;28;20037;-78
2022/08/07 13:21:18;;;;;;;13.27;6.57;;;;;;;;;;5035393;28;20017;-75
2022/08/07 13:23:44;;;;;;;12.50;5.45;;;;;;;;;;5050661;28;20068;-76
2022/08/07 13:26:18;;;;;;;11.32;5.40;;;;;;;;;;5034910;28;20029;-77
2022/08/07 13:28:53;;;;;;;16.77;6.57;;;;;;;;;;5033819;28;20021;-76
2022/08/07 13:31:37;;;;;;;9.23;5.40;;;;;;;;;;5023286;28;20455;-75
2022/08/07 13:34:10;;;;;;;8.73;5.43;;;;;;;;;;5035231;28;20029;-77
2022/08/07 13:36:58;;;;;;;9.15;5.05;;;;;;;;;;5033758;28;20013;-77
2022/08/07 13:39:32;;;;;;;9.48;4.93;;;;;;;;;;5028484;28;20060;-78
2022/08/07 13:41:58;;;;;;;6.63;4.55;;;;;;;;;;5017926;28;20014;-77
2022/08/07 13:44:31;;;;;;;7.43;5.38;;;;;;;;;;5035504;28;20466;-78
2022/08/07 13:46:58;;;;;;;8.20;4.65;;;;;;;;;;5034164;28;20482;-76
2022/08/07 13:49:23;;;;;;;9.35;4.18;;;;;;;;;;5033811;28;20033;-75
2022/08/07 13:51:52;;;;;;;9.80;5.30;;;;;;;;;;5034736;28;20160;-75
2022/08/07 13:54:27;;;;;;;8.88;4.90;;;;;;;;;;5034913;28;20034;-75
2022/08/07 13:56:58;;;;;;;10.68;4.55;;;;;;;;;;5013588;28;20037;-75
2022/08/07 13:59:30;;;;;;;5.25;3.58;;;;;;;;;;5015304;28;20552;-77
2022/08/07 14:02:07;;;;;;;9.60;3.65;;;;;;;;;;5030170;28;20037;-77
2022/08/07 14:04:43;;;;;;;8.02;4.18;;;;;;;;;;5034800;28;20056;-75
2022/08/07 14:07:10;;;;;;;7.10;3.53;;;;;;;;;;5049717;28;20133;-75
2022/08/07 14:09:39;;;;;;;4.82;3.25;;;;;;;;;;5032894;28;20029;-77
2022/08/07 14:12:06;;;;;;;6.68;3.90;;;;;;;;;;5034888;28;20025;-78
2022/08/07 14:14:40;;;;;;;4.85;3.03;;;;;;;;;;5050517;28;20120;-78
2022/08/07 14:17:05;;;;;;;6.93;2.95;;;;;;;;;;5034517;28;20029;-75
2022/08/07 14:19:43;;;;;;;3.80;2.70;;;;;;;;;;5033661;28;20465;-78
2022/08/07 14:22:08;;;;;;;5.97;2.67;;;;;;;;;;5039455;28;20469;-78
2022/08/07 14:24:34;;;;;;;5.65;2.88;;;;;;;;;;5044988;28;20088;-78
2022/08/07 14:27:01;;;;;;;3.93;1.87;;;;;;;;;;5034106;28;20021;-75
2022/08/07 14:29:30;;;;;;;5.32;2.10;;;;;;;;;;5034415;28;20274;-78
2022/08/07 14:31:57;;;;;;;3.88;2.63;;;;;;;;;;5049347;28;20045;-75
2022/08/07 14:34:28;;;;;;;5.05;2.25;;;;;;;;;;5014589;28;20458;-77
2022/08/07 14:36:53;;;;;;;3.70;2.05;;;;;;;;;;5031971;28;20025;-77
2022/08/07 14:39:20;;;;;;;3.03;2.10;;;;;;;;;;5033939;28;20029;-77
2022/08/07 14:41:48;;;;;;;4.78;1.85;;;;;;;;;;5030461;28;20069;-76
2022/08/07 14:44:13;;;;;;;3.78;1.90;;;;;;;;;;5048651;28;20069;-77
2022/08/07 14:46:40;;;;;;;5.43;2.30;;;;;;;;;;5048223;28;20068;-74
2022/08/07 14:49:06;;;;;;;4.35;1.80;;;;;;;;;;5033515;28;20025;-74
2022/08/07 14:51:35;;;;;;;6.25;3.38;;;;;;;;;;5032525;28;20036;-77
2022/08/07 14:54:01;;;;;;;4.82;1.83;;;;;;;;;;5033692;28;20076;-78